createdAt,value
2022-12-19T00:00:18.123Z,102931.59
2022-12-19T00:03:21.056Z,102921.84
2022-12-19T00:06:24.686Z,102920.09
2022-12-19T00:09:28.751Z,102907.69
2022-12-19T00:12:35.929Z,102905.03
2022-12-19T00:15:38.736Z,102889.97
2022-12-19T00:18:42.300Z,102876.66
2022-12-19T00:21:45.259Z,102874.03
2022-12-19T00:24:49.476Z,102877.56
2022-12-19T00:27:53.692Z,102874.03
2022-12-19T00:30:56.546Z,102872.25
2022-12-19T00:33:59.530Z,102854.53
2022-12-19T00:37:02.406Z,102855.44
2022-12-19T00:40:06.180Z,102853.66
2022-12-19T00:43:10.421Z,102843.91
2022-12-19T00:46:15.232Z,102836.84
2022-12-19T00:49:18.156Z,102831.50
2022-12-19T00:52:22.880Z,102835.94
2022-12-19T00:55:26.397Z,102842.16
2022-12-19T00:58:35.190Z,102844.78
2022-12-19T01:01:41.184Z,102840.38
2022-12-19T01:04:44.585Z,102847.47
2022-12-19T01:07:48.620Z,102837.72
2022-12-19T01:10:51.908Z,102840.38
2022-12-19T01:13:55.119Z,102850.09
2022-12-19T01:16:57.922Z,102851.91
2022-12-19T01:20:01.321Z,102846.56
2022-12-19T01:23:05.460Z,102812.91
2022-12-19T01:26:08.309Z,102821.75
2022-12-19T01:29:12.503Z,102808.47
2022-12-19T01:32:15.364Z,102808.47
2022-12-19T01:35:21.527Z,102810.25
2022-12-19T01:38:24.753Z,102803.16
2022-12-19T01:41:27.639Z,102796.94
2022-12-19T01:44:32.707Z,102772.16
2022-12-19T01:47:40.570Z,102769.53
2022-12-19T01:51:01.168Z,102764.22
2022-12-19T01:54:09.332Z,102752.69
2022-12-19T01:57:17.008Z,102750.03
2022-12-19T02:00:21.511Z,102734.97
2022-12-19T02:03:28.532Z,102731.44
2022-12-19T02:06:33.900Z,102720.81
2022-12-19T02:09:37.904Z,102709.31
2022-12-19T02:12:44.382Z,102704.88
2022-12-19T02:15:56.408Z,102687.16
2022-12-19T02:19:11.103Z,102694.25
2022-12-19T02:22:21.927Z,102688.94
2022-12-19T02:25:56.818Z,102687.16
2022-12-19T02:29:18.823Z,102676.53
2022-12-19T02:32:32.875Z,102674.78
2022-12-19T02:35:43.838Z,102666.84
2022-12-19T02:38:54.944Z,102680.09
2022-12-19T02:42:00.082Z,102671.25
2022-12-19T02:45:07.012Z,102675.69
2022-12-19T02:48:13.063Z,102675.69
2022-12-19T02:51:19.316Z,102668.56
2022-12-19T02:54:23.626Z,102668.56
2022-12-19T02:57:31.112Z,102668.56
2022-12-19T03:00:42.427Z,102670.34
2022-12-19T03:03:59.799Z,102673.88
2022-12-19T03:07:09.464Z,102666.78
2022-12-19T03:10:24.224Z,102656.13
2022-12-19T03:13:31.911Z,102656.13
2022-12-19T03:16:36.748Z,102649.09
2022-12-19T03:19:42.146Z,102641.13
2022-12-19T03:22:45.042Z,102644.66
2022-12-19T03:25:52.222Z,102634.88
2022-12-19T03:28:59.850Z,102640.19
2022-12-19T03:32:06.543Z,102634.00
2022-12-19T03:35:16.771Z,102639.31
2022-12-19T03:38:22.590Z,102641.97
2022-12-19T03:41:41.533Z,102648.16
2022-12-19T03:44:44.817Z,102645.50
2022-12-19T03:47:52.063Z,102634.88
2022-12-19T03:51:07.044Z,102634.88
2022-12-19T03:54:14.384Z,102638.47
2022-12-19T03:57:22.207Z,102632.25
2022-12-19T04:00:25.971Z,102637.56
2022-12-19T04:03:31.767Z,102640.19
2022-12-19T04:06:36.422Z,102636.69
2022-12-19T04:09:42.262Z,102642.00
2022-12-19T04:12:49.872Z,102629.56
2022-12-19T04:16:01.553Z,102617.19
2022-12-19T04:19:11.602Z,102616.28
2022-12-19T04:22:22.288Z,102616.28
2022-12-19T04:25:29.900Z,102611.88
2022-12-19T04:28:39.558Z,102616.28
2022-12-19T04:31:43.628Z,102611.88
2022-12-19T04:34:46.482Z,102615.44
2022-12-19T04:37:50.739Z,102618.94
2022-12-19T04:40:53.582Z,102610.97
2022-12-19T04:43:56.429Z,102608.31
2022-12-19T04:46:59.233Z,102609.22
2022-12-19T04:50:02.228Z,102604.81
2022-12-19T04:53:06.891Z,102598.59
2022-12-19T04:56:11.811Z,102598.59
2022-12-19T04:59:14.590Z,102597.72
2022-12-19T05:02:17.510Z,102601.25
2022-12-19T05:05:20.418Z,102587.13
2022-12-19T05:08:24.610Z,102584.47
2022-12-19T05:11:27.526Z,102573.84
2022-12-19T05:14:30.382Z,102578.25
2022-12-19T05:17:33.708Z,102582.69
2022-12-19T05:20:37.990Z,102576.50
2022-12-19T05:23:42.249Z,102580.91
2022-12-19T05:26:45.290Z,102576.50
2022-12-19T05:29:48.176Z,102575.59
2022-12-19T05:32:51.002Z,102582.69
2022-12-19T05:35:53.809Z,102565.88
2022-12-19T05:38:58.035Z,102548.16
2022-12-19T05:42:00.842Z,102548.16
2022-12-19T05:45:03.706Z,102545.50
2022-12-19T05:48:07.231Z,102544.66
2022-12-19T05:51:12.317Z,102539.34
2022-12-19T05:54:16.645Z,102532.22
2022-12-19T05:57:19.443Z,102518.06
2022-12-19T06:00:22.767Z,102521.56
2022-12-19T06:03:25.646Z,102515.38
2022-12-19T06:06:28.830Z,102517.13
2022-12-19T06:09:32.991Z,102527.75
2022-12-19T06:12:36.009Z,102529.53
2022-12-19T06:15:38.805Z,102527.75
2022-12-19T06:18:45.015Z,102521.56
2022-12-19T06:21:48.774Z,102521.56
2022-12-19T06:24:53.064Z,102528.66
2022-12-19T06:27:55.869Z,102527.75
2022-12-19T06:30:58.909Z,102515.41
2022-12-19T06:34:02.679Z,102512.75
2022-12-19T06:37:08.277Z,102499.47
2022-12-19T06:40:33.891Z,102492.38
2022-12-19T06:43:35.737Z,102478.19
2022-12-19T06:46:38.754Z,102478.19
2022-12-19T06:49:41.614Z,102484.41
2022-12-19T06:52:45.211Z,102479.09
2022-12-19T06:55:51.576Z,102480.00
2022-12-19T06:58:54.730Z,102493.28
2022-12-19T07:02:01.155Z,102492.38
2022-12-19T07:05:06.579Z,102501.22
2022-12-19T07:08:10.480Z,102494.16
2022-12-19T07:11:14.628Z,102485.28
2022-12-19T07:14:17.490Z,102483.50
2022-12-19T07:17:21.111Z,102479.94
2022-12-19T07:20:23.965Z,102485.25
2022-12-19T07:23:26.831Z,102490.56
2022-12-19T07:26:31.931Z,102484.41
2022-12-19T07:29:34.784Z,102475.50
2022-12-19T07:32:39.127Z,102471.97
2022-12-19T07:35:42.016Z,102472.88
2022-12-19T07:38:45.415Z,102467.56
2022-12-19T07:41:50.066Z,102478.19
2022-12-19T07:45:06.375Z,102470.22
2022-12-19T07:48:10.071Z,102467.56
2022-12-19T07:51:13.019Z,102463.16
2022-12-19T07:54:15.863Z,102455.19
2022-12-19T07:57:20.379Z,102472.00
2022-12-19T08:00:23.884Z,102466.69
2022-12-19T08:03:26.849Z,102459.66
2022-12-19T08:06:29.868Z,102457.88
2022-12-19T08:09:32.873Z,102449.91
2022-12-19T08:12:37.151Z,102458.75
2022-12-19T08:15:40.006Z,102451.66
2022-12-19T08:18:42.940Z,102438.38
2022-12-19T08:21:45.891Z,102433.97
2022-12-19T08:24:48.770Z,102436.63
2022-12-19T08:27:53.005Z,102431.31
2022-12-19T08:30:56.009Z,102420.69
2022-12-19T08:33:59.214Z,102420.66
2022-12-19T08:37:02.090Z,102404.72
2022-12-19T08:40:05.613Z,102393.19
2022-12-19T08:43:09.793Z,102392.28
2022-12-19T08:46:12.657Z,102378.16
2022-12-19T08:49:15.697Z,102376.34
2022-12-19T08:52:18.762Z,102375.44
2022-12-19T08:55:21.583Z,102382.50
2022-12-19T08:58:26.749Z,102388.69
2022-12-19T09:01:29.867Z,102362.13
2022-12-19T09:05:58.153Z,102378.91
2022-12-19T09:07:55.624Z,102370.94
2022-12-19T09:10:59.853Z,102366.53
2022-12-19T09:14:05.046Z,102366.53
2022-12-19T09:17:08.139Z,102375.41
2022-12-19T09:20:12.198Z,102354.16
2022-12-19T09:23:15.086Z,102364.78
2022-12-19T09:26:18.118Z,102356.81
2022-12-19T09:29:22.555Z,102340.88
2022-12-19T09:32:25.467Z,102334.69
2022-12-19T09:35:30.415Z,102320.56
2022-12-19T09:38:38.215Z,102314.34
2022-12-19T09:42:02.485Z,102304.63
2022-12-19T09:45:31.263Z,102299.31
2022-12-19T09:48:35.074Z,102294.00
2022-12-19T09:51:44.488Z,102283.38
2022-12-19T09:54:52.491Z,102276.31
2022-12-19T09:58:05.710Z,102276.31
2022-12-19T10:01:20.049Z,102271.88
2022-12-19T10:04:26.847Z,102268.38
2022-12-19T10:07:59.601Z,102259.53
2022-12-19T10:12:42.573Z,102263.06
2022-12-19T10:14:41.779Z,102236.50
2022-12-19T10:18:29.588Z,102237.34
2022-12-19T10:22:16.501Z,102241.78
2022-12-19T10:25:23.937Z,102235.53
2022-12-19T10:28:49.530Z,102210.75
2022-12-19T10:31:59.727Z,102216.06
2022-12-19T10:35:02.690Z,102204.50
2022-12-19T10:38:22.496Z,102194.78
2022-12-19T10:41:27.975Z,102194.78
2022-12-19T10:44:33.353Z,102181.50
2022-12-19T10:47:37.118Z,102177.94
2022-12-19T10:50:39.971Z,102182.38
2022-12-19T10:53:54.996Z,102170.88
2022-12-19T10:57:23.966Z,102177.06
2022-12-19T11:00:27.632Z,102168.22
2022-12-19T11:03:36.529Z,102170.88
2022-12-19T11:06:52.440Z,102170.88
2022-12-19T11:10:42.675Z,102162.91
2022-12-19T11:18:31.073Z,102154.94
2022-12-19T11:23:21.221Z,102150.53
2022-12-19T11:29:25.336Z,102151.38
2022-12-19T11:29:54.650Z,102147.00
2022-12-19T11:30:49.024Z,102139.91
2022-12-19T11:33:55.547Z,102128.44
2022-12-19T11:37:05.338Z,102112.50
2022-12-19T11:40:16.408Z,102108.97
2022-12-19T11:43:43.793Z,102101.00
2022-12-19T11:46:53.631Z,102092.09
2022-12-19T11:50:02.492Z,102090.38
2022-12-19T11:53:19.071Z,102090.38
2022-12-19T11:56:25.070Z,102084.19
2022-12-19T11:59:32.953Z,102084.19
2022-12-19T12:03:02.744Z,102074.44
2022-12-19T12:06:12.866Z,102080.63
2022-12-19T12:13:17.445Z,102070.00
2022-12-19T12:22:24.493Z,102070.84
2022-12-19T12:28:53.397Z,102064.69
2022-12-19T12:31:10.130Z,102051.38
2022-12-19T12:31:45.497Z,102041.63
2022-12-19T12:31:52.738Z,102040.75
2022-12-19T12:31:55.326Z,102047.78
2022-12-19T12:35:32.683Z,102036.31
2022-12-19T12:38:27.063Z,102033.66
2022-12-19T12:42:01.663Z,102034.56
2022-12-19T12:45:19.310Z,102009.75
2022-12-19T12:48:27.485Z,102014.19
2022-12-19T12:51:35.333Z,102006.22
2022-12-19T12:54:43.124Z,102007.09
2022-12-19T12:57:45.999Z,102008.88
2022-12-19T13:01:09.742Z,101995.59
2022-12-19T13:04:25.313Z,102013.25
2022-12-19T13:07:43.559Z,101993.81
2022-12-19T13:10:54.496Z,102003.56
2022-12-19T13:13:58.373Z,102001.78
2022-12-19T13:17:02.283Z,101996.47
2022-12-19T13:20:41.571Z,101992.97
2022-12-19T13:23:49.429Z,101990.31
2022-12-19T13:26:52.815Z,101984.13
2022-12-19T13:30:03.806Z,101986.78
2022-12-19T13:33:10.133Z,101985.00
2022-12-19T13:39:49.871Z,101973.47
2022-12-19T13:40:30.614Z,101961.06
2022-12-19T13:43:48.806Z,101956.63
2022-12-19T13:46:51.808Z,101960.13
2022-12-19T13:49:55.802Z,101954.88
2022-12-19T13:52:58.835Z,101948.66
2022-12-19T13:56:05.047Z,101947.78
2022-12-19T13:59:08.412Z,101953.09
2022-12-19T14:02:19.639Z,101961.94
2022-12-19T14:05:30.623Z,101953.97
2022-12-19T14:10:02.821Z,101960.13
2022-12-19T14:13:57.508Z,101951.28
2022-12-19T14:16:00.522Z,101947.72
2022-12-19T14:19:03.682Z,101948.63
2022-12-19T14:22:25.881Z,101942.41
2022-12-19T14:28:17.528Z,101952.16
2022-12-19T14:29:07.509Z,101952.16
2022-12-19T14:33:47.268Z,101940.69
2022-12-19T14:36:06.077Z,101939.81
2022-12-19T14:39:24.399Z,101934.50
2022-12-19T14:43:58.792Z,101939.81
2022-12-19T14:54:11.035Z,101927.41
2022-12-19T14:54:15.968Z,101928.31
2022-12-19T14:54:27.812Z,101931.84
2022-12-19T14:57:01.531Z,101923.88
2022-12-19T15:01:10.369Z,101928.25
2022-12-19T15:04:52.466Z,101919.44
2022-12-19T15:07:20.425Z,101920.28
2022-12-19T15:11:04.352Z,101925.59
2022-12-19T15:14:58.694Z,101917.63
2022-12-19T15:17:22.026Z,101897.31
2022-12-19T15:20:26.243Z,101904.41
2022-12-19T15:23:30.475Z,101896.44
2022-12-19T15:26:35.736Z,101899.03
2022-12-19T15:29:38.655Z,101907.00
2022-12-19T15:32:41.686Z,101904.34
2022-12-19T15:35:46.073Z,101899.03
2022-12-19T15:38:48.937Z,101906.13
2022-12-19T15:41:54.673Z,101900.84
2022-12-19T15:44:59.910Z,101907.00
2022-12-19T15:48:02.810Z,101909.66
2022-12-19T15:51:07.312Z,101899.03
2022-12-19T15:54:46.442Z,101900.84
2022-12-19T15:57:36.229Z,101899.09
2022-12-19T16:00:40.288Z,101897.31
2022-12-19T16:03:43.335Z,101878.75
2022-12-19T16:06:47.771Z,101881.38
2022-12-19T16:09:50.942Z,101878.72
2022-12-19T16:12:57.648Z,101872.47
2022-12-19T16:16:00.728Z,101872.47
2022-12-19T16:19:03.669Z,101870.75
2022-12-19T16:22:17.599Z,101870.75
2022-12-19T16:25:20.921Z,101867.16
2022-12-19T16:28:29.834Z,101859.19
2022-12-19T16:31:32.795Z,101850.38
2022-12-19T16:34:35.701Z,101848.56
2022-12-19T16:37:39.876Z,101848.56
2022-12-19T16:40:43.043Z,101844.13
2022-12-19T16:43:46.654Z,101844.13
2022-12-19T16:46:51.720Z,101844.13
2022-12-19T16:49:54.759Z,101848.50
2022-12-19T16:52:59.115Z,101852.03
2022-12-19T16:56:02.336Z,101848.50
2022-12-19T16:59:12.228Z,101851.16
2022-12-19T17:02:44.266Z,101851.16
2022-12-19T17:05:47.144Z,101846.72
2022-12-19T17:08:51.361Z,101855.59
2022-12-19T17:11:57.028Z,101848.50
2022-12-19T17:15:00.364Z,101852.94
2022-12-19T17:18:05.542Z,101846.78
2022-12-19T17:21:08.786Z,101844.97
2022-12-19T17:24:14.612Z,101840.53
2022-12-19T17:27:19.189Z,101843.19
2022-12-19T17:30:23.116Z,101835.22
2022-12-19T17:33:33.240Z,101843.19
2022-12-19T17:36:37.905Z,101840.59
2022-12-19T17:39:42.834Z,101836.16
2022-12-19T17:42:45.737Z,101827.31
2022-12-19T17:45:48.977Z,101832.63
2022-12-19T17:48:53.637Z,101830.84
2022-12-19T17:51:57.155Z,101823.78
2022-12-19T17:55:01.402Z,101828.19
2022-12-19T17:58:04.291Z,101822.00
2022-12-19T18:01:13.891Z,101826.44
2022-12-19T18:04:19.469Z,101813.16
2022-12-19T18:07:22.612Z,101816.69
2022-12-19T18:10:29.957Z,101822.00
2022-12-19T18:13:32.931Z,101815.81
2022-12-19T18:16:35.887Z,101808.72
2022-12-19T18:19:39.339Z,101806.06
2022-12-19T18:22:42.732Z,101807.84
2022-12-19T18:25:48.007Z,101806.94
2022-12-19T18:28:50.944Z,101802.53
2022-12-19T18:31:53.847Z,101798.97
2022-12-19T18:34:56.849Z,101801.63
2022-12-19T18:38:01.805Z,101801.63
2022-12-19T18:41:06.234Z,101809.59
2022-12-19T18:44:09.639Z,101801.63
2022-12-19T18:47:21.212Z,101798.03
2022-12-19T18:50:27.257Z,101805.13
2022-12-19T18:53:35.292Z,101801.63
2022-12-19T18:56:40.360Z,101809.59
2022-12-19T18:59:43.175Z,101796.31
2022-12-19T19:02:49.896Z,101800.75
2022-12-19T19:05:52.883Z,101792.78
2022-12-19T19:08:56.878Z,101791.94
2022-12-19T19:12:20.760Z,101784.81
2022-12-19T19:15:27.748Z,101793.66
2022-12-19T19:18:34.866Z,101793.66
2022-12-19T19:21:38.560Z,101788.34
2022-12-19T19:24:41.379Z,101788.34
2022-12-19T19:27:45.898Z,101786.59
2022-12-19T19:30:48.903Z,101790.13
2022-12-19T19:33:56.890Z,101779.50
2022-12-19T19:37:03.668Z,101785.69
2022-12-19T19:40:07.983Z,101770.66
2022-12-19T19:43:12.202Z,101766.22
2022-12-19T19:46:15.069Z,101769.75
2022-12-19T19:49:17.964Z,101760.91
2022-12-19T19:52:20.777Z,101758.19
2022-12-19T19:55:23.725Z,101753.81
2022-12-19T19:58:29.049Z,101768.81
2022-12-19T20:01:32.158Z,101763.47
2022-12-19T20:04:36.177Z,101769.66
2022-12-19T20:07:39.161Z,101775.00
2022-12-19T20:10:42.087Z,101771.44
2022-12-19T20:13:46.344Z,101773.25
2022-12-19T20:16:49.891Z,101768.78
2022-12-19T20:19:52.843Z,101756.47
2022-12-19T20:22:55.692Z,101757.31
2022-12-19T20:26:01.707Z,101761.78
2022-12-19T20:29:06.459Z,101768.00
2022-12-19T20:32:10.065Z,101760.91
2022-12-19T20:35:15.138Z,101762.69
2022-12-19T20:38:18.099Z,101768.00
2022-12-19T20:41:20.982Z,101757.38
2022-12-19T20:44:25.481Z,101762.69
2022-12-19T20:47:29.409Z,101758.25
2022-12-19T20:50:32.292Z,101752.06
2022-12-19T20:53:36.639Z,101752.94
2022-12-19T20:56:39.675Z,101757.41
2022-12-19T20:59:43.892Z,101747.63
2022-12-19T21:03:25.740Z,101752.09
2022-12-19T21:06:11.887Z,101747.63
2022-12-19T21:09:14.672Z,101752.94
2022-12-19T21:12:17.625Z,101743.19
2022-12-19T21:15:21.838Z,101759.97
2022-12-19T21:18:25.659Z,101754.63
2022-12-19T21:21:28.769Z,101762.59
2022-12-19T21:24:32.973Z,101760.81
2022-12-19T21:27:35.846Z,101754.59
2022-12-19T21:30:40.135Z,101754.59
2022-12-19T21:33:43.072Z,101757.25
2022-12-19T21:36:45.877Z,101762.56
2022-12-19T21:39:49.082Z,101759.03
2022-12-19T21:42:52.065Z,101764.34
2022-12-19T21:46:06.742Z,101763.44
2022-12-19T21:49:10.640Z,101764.34
2022-12-19T21:52:13.496Z,101759.03
2022-12-19T21:55:16.320Z,101755.47
2022-12-19T21:58:19.229Z,101763.44
2022-12-19T22:01:24.218Z,101759.91
2022-12-19T22:04:27.907Z,101753.72
2022-12-19T22:07:30.753Z,101748.41
2022-12-19T22:10:33.571Z,101738.69
2022-12-19T22:13:36.430Z,101751.09
2022-12-19T22:16:41.008Z,101751.09
2022-12-19T22:19:43.962Z,101753.81
2022-12-19T22:22:46.732Z,101754.66
2022-12-19T22:25:49.620Z,101751.16
2022-12-19T22:28:54.915Z,101753.81
2022-12-19T22:31:59.181Z,101749.34
2022-12-19T22:35:02.048Z,101752.88
2022-12-19T22:38:04.856Z,101759.06
2022-12-19T22:41:08.183Z,101752.00
2022-12-19T22:44:17.213Z,101744.91
2022-12-19T22:47:21.652Z,101746.69
2022-12-19T22:50:24.626Z,101749.34
2022-12-19T22:53:27.440Z,101740.47
2022-12-19T22:56:32.580Z,101741.38
2022-12-19T22:59:35.719Z,101733.38
2022-12-19T23:02:41.466Z,101732.47
2022-12-19T23:05:48.562Z,101712.13
2022-12-19T23:08:55.146Z,101727.16
2022-12-19T23:11:58.004Z,101726.28
2022-12-19T23:15:00.941Z,101713.00
2022-12-19T23:18:05.537Z,101711.22
2022-12-19T23:21:10.528Z,101711.22
2022-12-19T23:24:13.545Z,101709.47
2022-12-19T23:27:16.372Z,101699.72
2022-12-19T23:30:19.604Z,101694.44
2022-12-19T23:33:23.784Z,101725.44
2022-12-19T23:37:08.400Z,101725.44
2022-12-19T23:39:49.987Z,101741.38
2022-12-19T23:42:52.863Z,101737.78
2022-12-19T23:45:56.061Z,101740.47
2022-12-19T23:49:00.421Z,101738.69
2022-12-19T23:52:03.467Z,101736.03
2022-12-19T23:55:07.442Z,101724.53
2022-12-19T23:58:14.685Z,101724.53
